TimeCDT,TemperatureF,Dew PointF,Humidity,Sea Level PressureIn,VisibilityMPH,Wind Direction,Wind SpeedMPH,Gust SpeedMPH,PrecipitationIn,Events,Conditions,WindDirDegrees,DateUTC
12:53 AM,55.0,52.0,89,29.95,10.0,North,4.6,-,N/A,,Clear,360,2013-07-23 05:53:00
1:53 AM,54.0,53.1,97,29.96,10.0,NNE,3.5,-,N/A,,Clear,30,2013-07-23 06:53:00
2:53 AM,55.9,53.1,90,29.96,10.0,NE,8.1,-,N/A,,Clear,40,2013-07-23 07:53:00
3:53 AM,55.0,53.1,93,29.96,10.0,NNE,6.9,-,N/A,,Clear,30,2013-07-23 08:53:00
4:53 AM,53.1,51.1,93,29.99,10.0,North,6.9,-,N/A,,Clear,350,2013-07-23 09:53:00
5:53 AM,53.1,52.0,96,30.00,10.0,NNE,4.6,-,N/A,,Clear,20,2013-07-23 10:53:00
6:53 AM,54.0,52.0,93,30.01,10.0,Calm,Calm,-,N/A,,Mostly Cloudy,0,2013-07-23 11:53:00
7:53 AM,55.9,54.0,93,30.01,10.0,NE,6.9,-,N/A,,Overcast,40,2013-07-23 12:53:00
8:53 AM,57.0,54.0,89,30.03,10.0,North,5.8,-,0.01,Thunderstorm,Thunderstorm,350,2013-07-23 13:53:00
8:59 AM,55.4,53.6,94,30.03,1.8,Calm,Calm,-,0.10,Rain-Thunderstorm,Heavy Thunderstorms and Rain,0,2013-07-23 13:59:00
9:06 AM,57.2,55.4,94,30.03,4.0,ENE,3.5,-,0.10,Rain-Thunderstorm,Light Thunderstorms and Rain,60,2013-07-23 14:06:00
9:21 AM,57.2,55.4,94,30.03,10.0,East,5.8,-,0.10,,Overcast,90,2013-07-23 14:21:00
9:53 AM,60.1,55.0,83,30.05,10.0,Calm,Calm,-,0.11,,Scattered Clouds,0,2013-07-23 14:53:00
10:53 AM,64.0,55.0,73,30.05,10.0,SSE,3.5,-,N/A,,Scattered Clouds,160,2013-07-23 15:53:00
11:13 AM,64.4,55.4,73,30.05,10.0,NE,3.5,-,N/A,,Mostly Cloudy,40,2013-07-23 16:13:00
11:35 AM,66.2,53.6,64,30.05,10.0,ENE,3.5,-,N/A,,Mostly Cloudy,60,2013-07-23 16:35:00
11:53 AM,66.0,54.0,65,30.04,10.0,NNE,5.8,-,N/A,,Mostly Cloudy,30,2013-07-23 16:53:00
12:53 PM,69.1,54.0,58,30.05,10.0,Variable,4.6,-,N/A,,Scattered Clouds,0,2013-07-23 17:53:00
1:53 PM,70.0,54.0,57,30.04,10.0,Variable,4.6,-,N/A,,Scattered Clouds,0,2013-07-23 18:53:00
2:53 PM,70.0,54.0,57,30.04,10.0,North,6.9,-,N/A,,Mostly Cloudy,10,2013-07-23 19:53:00
3:53 PM,71.1,54.0,55,30.04,10.0,NNE,9.2,-,N/A,,Overcast,30,2013-07-23 20:53:00
4:53 PM,72.0,55.0,55,30.03,10.0,NNW,6.9,-,N/A,,Mostly Cloudy,340,2013-07-23 21:53:00
5:53 PM,69.1,54.0,58,30.03,10.0,North,6.9,-,N/A,,Clear,360,2013-07-23 22:53:00
6:53 PM,72.0,54.0,53,30.01,10.0,NNE,5.8,-,N/A,,Clear,20,2013-07-23 23:53:00
7:53 PM,68.0,54.0,61,30.03,10.0,NNE,9.2,-,N/A,,Partly Cloudy,20,2013-07-24 00:53:00
8:53 PM,64.0,55.0,73,30.04,10.0,NE,5.8,-,N/A,,Scattered Clouds,40,2013-07-24 01:53:00
9:53 PM,61.0,54.0,78,30.06,10.0,NNE,3.5,-,N/A,,Partly Cloudy,20,2013-07-24 02:53:00
10:53 PM,61.0,54.0,78,30.06,10.0,Calm,Calm,-,N/A,,Clear,0,2013-07-24 03:53:00
11:53 PM,59.0,53.1,81,30.05,10.0,Calm,Calm,-,N/A,,Clear,0,2013-07-24 04:53:00